createdAt,value
2024-04-09T00:00:36.768Z,17.36
2024-04-09T00:03:03.636Z,17.68
2024-04-09T00:05:30.183Z,16.99
2024-04-09T00:07:56.727Z,17.16
2024-04-09T00:10:23.296Z,17.55
2024-04-09T00:12:52.434Z,17.79
2024-04-09T00:15:20.319Z,17.79
2024-04-09T00:17:47.045Z,16.95
2024-04-09T00:20:13.940Z,17.03
2024-04-09T00:22:40.499Z,17.56
2024-04-09T00:25:07.243Z,17.64
2024-04-09T00:27:33.936Z,17.24
2024-04-09T00:30:03.387Z,17.77
2024-04-09T00:32:30.216Z,17.47
2024-04-09T00:34:56.863Z,17.15
2024-04-09T00:37:23.415Z,17.62
2024-04-09T00:39:50.036Z,17.71
2024-04-09T00:42:16.635Z,17.65
2024-04-09T00:44:43.435Z,17.69
2024-04-09T00:47:12.926Z,17.89
2024-04-09T00:49:39.490Z,18.12
2024-04-09T00:52:06.195Z,17.66
2024-04-09T00:54:33.031Z,18.07
2024-04-09T00:57:00.006Z,18.11
2024-04-09T00:59:27.676Z,18.10
2024-04-09T01:01:54.736Z,17.96
2024-04-09T01:04:24.086Z,17.46
2024-04-09T01:06:50.760Z,17.88
2024-04-09T01:09:17.379Z,18.25
2024-04-09T01:11:44.082Z,17.93
2024-04-09T01:14:10.658Z,18.05
2024-04-09T01:16:37.282Z,18.12
2024-04-09T01:19:04.050Z,18.17
2024-04-09T01:21:33.480Z,18.14
2024-04-09T01:24:02.900Z,17.94
2024-04-09T01:26:29.443Z,18.30
2024-04-09T01:28:55.959Z,18.45
2024-04-09T01:31:23.543Z,18.55
2024-04-09T01:33:50.153Z,18.54
2024-04-09T01:36:16.803Z,18.62
2024-04-09T01:38:43.490Z,18.63
2024-04-09T01:41:12.614Z,18.49
2024-04-09T01:43:39.225Z,18.65
2024-04-09T01:46:09.730Z,18.44
2024-04-09T01:48:36.461Z,18.47
2024-04-09T01:51:03.127Z,18.67
2024-04-09T01:53:29.876Z,18.38
2024-04-09T01:56:02.665Z,18.50
2024-04-09T01:58:31.799Z,18.64
2024-04-09T02:00:58.342Z,18.57
2024-04-09T02:03:26.768Z,18.69
2024-04-09T02:05:53.423Z,18.66
2024-04-09T02:08:19.979Z,18.74
2024-04-09T02:10:46.513Z,18.60
2024-04-09T02:13:13.097Z,18.76
2024-04-09T02:15:42.336Z,18.69
2024-04-09T02:18:09.066Z,18.23
2024-04-09T02:20:35.716Z,18.54
2024-04-09T02:23:02.243Z,17.74
2024-04-09T02:25:28.779Z,18.44
2024-04-09T02:27:55.355Z,18.08
2024-04-09T02:30:21.953Z,18.11
2024-04-09T02:32:51.104Z,18.35
2024-04-09T02:35:17.669Z,18.54
2024-04-09T02:37:44.205Z,18.50
2024-04-09T02:40:11.314Z,18.11
2024-04-09T02:42:37.972Z,18.21
2024-04-09T02:45:05.793Z,18.65
2024-04-09T02:47:32.481Z,18.71
2024-04-09T02:50:01.967Z,18.80
2024-04-09T02:52:28.629Z,18.81
2024-04-09T02:54:55.147Z,18.47
2024-04-09T02:57:21.819Z,18.75
2024-04-09T02:59:52.365Z,18.63
2024-04-09T03:02:18.971Z,18.67
2024-04-09T03:04:45.702Z,18.41
2024-04-09T03:07:14.843Z,18.20
2024-04-09T03:09:41.484Z,17.53
2024-04-09T03:12:08.274Z,18.37
2024-04-09T03:14:34.834Z,17.87
2024-04-09T03:17:01.356Z,18.43
2024-04-09T03:19:27.890Z,18.17
2024-04-09T03:21:54.422Z,18.57
2024-04-09T03:24:23.630Z,17.87
2024-04-09T03:26:50.305Z,17.49
2024-04-09T03:29:16.831Z,18.21
2024-04-09T03:31:43.363Z,18.62
2024-04-09T03:34:10.132Z,18.65
2024-04-09T03:36:36.839Z,17.85
2024-04-09T03:39:03.659Z,18.56
2024-04-09T03:41:32.859Z,18.13
2024-04-09T03:44:00.309Z,18.21
2024-04-09T03:46:26.843Z,18.33
2024-04-09T03:48:53.591Z,18.27
2024-04-09T03:51:20.454Z,18.46
2024-04-09T03:53:48.290Z,18.53
2024-04-09T03:56:14.858Z,17.83
2024-04-09T03:58:45.723Z,18.33
2024-04-09T04:01:12.652Z,18.26
2024-04-09T04:03:42.143Z,18.30
2024-04-09T04:06:08.991Z,17.55
2024-04-09T04:08:37.184Z,17.80
2024-04-09T04:11:05.397Z,18.23
2024-04-09T04:13:34.086Z,18.13
2024-04-09T04:16:04.509Z,17.73
2024-04-09T04:18:31.296Z,18.03
2024-04-09T04:20:58.152Z,18.26
2024-04-09T04:23:24.981Z,18.43
2024-04-09T04:25:59.966Z,18.55
2024-04-09T04:28:26.510Z,18.64
2024-04-09T04:30:53.193Z,18.03
2024-04-09T04:33:22.501Z,18.66
2024-04-09T04:35:49.172Z,18.73
2024-04-09T04:38:15.750Z,18.78
2024-04-09T04:40:42.332Z,18.10
2024-04-09T04:43:08.860Z,18.72
2024-04-09T04:45:35.406Z,18.90
2024-04-09T04:48:02.374Z,19.28
2024-04-09T04:50:31.624Z,18.58
2024-04-09T04:52:58.363Z,18.76
2024-04-09T04:55:25.101Z,18.49
2024-04-09T04:57:51.663Z,18.95
2024-04-09T05:00:18.496Z,18.82
2024-04-09T05:02:45.182Z,19.06
2024-04-09T05:05:11.859Z,18.49
2024-04-09T05:07:41.411Z,18.51
2024-04-09T05:10:08.646Z,18.69
2024-04-09T05:12:35.230Z,18.49
2024-04-09T05:15:01.864Z,18.35
2024-04-09T05:17:28.525Z,17.76
2024-04-09T05:19:55.081Z,17.71
2024-04-09T05:22:21.604Z,18.08
2024-04-09T05:24:50.766Z,18.36
2024-04-09T05:27:17.336Z,18.37
2024-04-09T05:29:44.350Z,18.30
2024-04-09T05:32:11.125Z,18.50
2024-04-09T05:34:37.690Z,18.48
2024-04-09T05:37:04.931Z,18.50
2024-04-09T05:39:31.624Z,18.01
2024-04-09T05:42:00.876Z,17.77
2024-04-09T05:44:27.486Z,18.59
2024-04-09T05:46:54.059Z,18.48
2024-04-09T05:49:20.754Z,18.40
2024-04-09T05:51:47.314Z,19.04
2024-04-09T05:54:13.966Z,19.47
2024-04-09T05:56:40.558Z,19.18
2024-04-09T05:59:09.711Z,19.45
2024-04-09T06:01:36.400Z,19.58
2024-04-09T06:04:03.054Z,19.29
2024-04-09T06:06:29.711Z,19.80
2024-04-09T06:08:56.280Z,20.00
2024-04-09T06:11:22.834Z,19.82
2024-04-09T06:13:52.851Z,20.04
2024-04-09T06:16:22.057Z,19.64
2024-04-09T06:18:49.813Z,19.69
2024-04-09T06:21:16.515Z,19.76
2024-04-09T06:23:45.756Z,19.88
2024-04-09T06:26:12.527Z,19.78
2024-04-09T06:28:39.068Z,19.41
2024-04-09T06:31:05.591Z,19.30
2024-04-09T06:33:34.779Z,19.28
2024-04-09T06:36:08.880Z,19.28
2024-04-09T06:38:42.270Z,19.33
2024-04-09T06:41:08.790Z,19.56
2024-04-09T06:43:35.336Z,19.39
2024-04-09T06:46:01.945Z,19.72
2024-04-09T06:48:28.696Z,19.35
2024-04-09T06:50:57.952Z,19.25
2024-04-09T06:53:25.008Z,19.62
2024-04-09T06:55:51.778Z,19.37
2024-04-09T06:58:18.322Z,19.97
2024-04-09T07:00:45.027Z,19.41
2024-04-09T07:03:11.744Z,19.93
2024-04-09T07:05:38.356Z,20.06
2024-04-09T07:08:07.869Z,19.44
2024-04-09T07:10:34.434Z,19.62
2024-04-09T07:13:00.972Z,19.51
2024-04-09T07:15:28.717Z,19.60
2024-04-09T07:17:55.341Z,19.86
2024-04-09T07:20:22.815Z,19.21
2024-04-09T07:22:49.368Z,19.11
2024-04-09T07:25:18.620Z,19.35
2024-04-09T07:27:45.298Z,20.13
2024-04-09T07:30:12.543Z,20.41
2024-04-09T07:32:39.138Z,20.48
2024-04-09T07:35:06.153Z,20.08
2024-04-09T07:37:32.744Z,19.90
2024-04-09T07:39:59.383Z,19.90
2024-04-09T07:42:28.672Z,20.39
2024-04-09T07:44:55.247Z,20.19
2024-04-09T07:47:21.839Z,19.93
2024-04-09T07:49:51.046Z,20.22
2024-04-09T07:52:18.576Z,20.29
2024-04-09T07:54:45.210Z,20.12
2024-04-09T07:57:11.953Z,19.81
2024-04-09T07:59:41.216Z,19.85
2024-04-09T08:02:07.738Z,20.08
2024-04-09T08:04:34.544Z,20.15
2024-04-09T08:07:01.520Z,20.69
2024-04-09T08:09:30.051Z,20.67
2024-04-09T08:11:56.957Z,20.45
2024-04-09T08:14:23.811Z,20.11
2024-04-09T08:16:52.985Z,19.91
2024-04-09T08:19:19.735Z,19.77
2024-04-09T08:21:46.454Z,20.00
2024-04-09T08:24:13.004Z,20.04
2024-04-09T08:26:39.544Z,20.27
2024-04-09T08:29:06.105Z,20.39
2024-04-09T08:31:32.662Z,20.58
2024-04-09T08:34:02.128Z,20.26
2024-04-09T08:36:28.932Z,20.34
2024-04-09T08:38:56.424Z,20.12
2024-04-09T08:41:24.036Z,20.40
2024-04-09T08:43:51.031Z,20.09
2024-04-09T08:46:17.841Z,20.23
2024-04-09T08:48:46.029Z,20.08
2024-04-09T08:51:16.011Z,20.38
2024-04-09T08:53:45.910Z,20.30
2024-04-09T08:56:12.543Z,19.62
2024-04-09T08:58:39.176Z,19.96
2024-04-09T09:01:05.918Z,21.25
2024-04-09T09:03:32.847Z,20.40
2024-04-09T09:06:00.546Z,20.86
2024-04-09T09:08:39.542Z,20.91
2024-04-09T09:11:06.135Z,20.86
2024-04-09T09:13:32.668Z,20.19
2024-04-09T09:15:59.235Z,22.25
2024-04-09T09:18:26.017Z,21.02
2024-04-09T09:20:59.551Z,20.77
2024-04-09T09:23:26.114Z,20.61
2024-04-09T09:25:55.518Z,20.55
2024-04-09T09:28:22.988Z,21.08
2024-04-09T09:30:50.146Z,20.79
2024-04-09T09:33:20.545Z,20.62
2024-04-09T09:35:48.443Z,20.24
2024-04-09T09:38:16.851Z,19.75
2024-04-09T09:40:46.437Z,19.84
2024-04-09T09:43:16.566Z,20.06
2024-04-09T09:45:43.659Z,20.41
2024-04-09T09:48:12.517Z,20.34
2024-04-09T09:50:39.405Z,20.22
2024-04-09T09:53:06.262Z,20.15
2024-04-09T09:55:33.928Z,20.05
2024-04-09T09:58:02.671Z,20.81
2024-04-09T10:00:35.822Z,20.31
2024-04-09T10:03:03.011Z,20.43
2024-04-09T10:05:31.204Z,20.45
2024-04-09T10:07:57.769Z,20.55
2024-04-09T10:10:25.754Z,20.39
2024-04-09T10:12:53.596Z,20.67
2024-04-09T10:15:27.978Z,20.81
2024-04-09T10:17:58.306Z,20.02
2024-04-09T10:20:25.961Z,19.95
2024-04-09T10:22:53.718Z,20.22
2024-04-09T10:25:21.302Z,20.90
2024-04-09T10:27:48.677Z,20.74
2024-04-09T10:30:16.637Z,20.16
2024-04-09T10:32:55.075Z,20.54
2024-04-09T10:35:24.519Z,21.07
2024-04-09T10:37:52.736Z,20.79
2024-04-09T10:40:19.505Z,20.59
2024-04-09T10:42:46.482Z,20.02
2024-04-09T10:45:13.439Z,20.29
2024-04-09T10:47:40.170Z,20.36
2024-04-09T10:50:07.899Z,20.87
2024-04-09T10:52:37.377Z,19.98
2024-04-09T10:55:07.578Z,20.60
2024-04-09T10:57:34.145Z,20.61
2024-04-09T11:00:06.321Z,21.18
2024-04-09T11:02:33.453Z,20.65
2024-04-09T11:05:00.485Z,20.05
2024-04-09T11:07:27.170Z,19.52
2024-04-09T11:09:56.572Z,19.43
2024-04-09T11:12:23.271Z,19.51
2024-04-09T11:14:50.122Z,18.99
2024-04-09T11:17:17.292Z,17.30
2024-04-09T11:19:46.330Z,16.95
2024-04-09T11:22:13.628Z,16.77
2024-04-09T11:24:40.422Z,17.00
2024-04-09T11:27:10.358Z,17.07
2024-04-09T11:29:37.237Z,17.38
2024-04-09T11:32:04.226Z,17.05
2024-04-09T11:34:31.950Z,16.90
2024-04-09T11:37:00.602Z,17.02
2024-04-09T11:39:27.196Z,17.04
2024-04-09T11:41:55.023Z,17.06
2024-04-09T11:44:25.496Z,17.06
2024-04-09T11:46:52.070Z,16.58
2024-04-09T11:49:18.927Z,16.72
2024-04-09T11:51:45.583Z,17.28
2024-04-09T11:54:12.254Z,17.30
2024-04-09T11:56:38.880Z,17.14
2024-04-09T11:59:05.580Z,17.54
2024-04-09T12:01:35.195Z,17.06
2024-04-09T12:04:02.499Z,16.75
2024-04-09T12:06:29.263Z,17.21
2024-04-09T12:08:55.834Z,16.60
2024-04-09T12:11:23.779Z,16.34
2024-04-09T12:13:50.326Z,17.15
2024-04-09T12:16:16.869Z,16.63
2024-04-09T12:18:46.298Z,16.56
2024-04-09T12:21:13.089Z,16.49
2024-04-09T12:23:39.690Z,15.87
2024-04-09T12:26:06.274Z,15.88
2024-04-09T12:28:32.839Z,15.88
2024-04-09T12:30:59.486Z,15.44
2024-04-09T12:33:26.498Z,15.29
2024-04-09T12:35:55.707Z,15.09
2024-04-09T12:38:22.272Z,14.92
2024-04-09T12:40:49.763Z,14.98
2024-04-09T12:43:16.618Z,15.38
2024-04-09T12:45:43.252Z,15.32
2024-04-09T12:48:10.035Z,15.55
2024-04-09T12:50:36.871Z,15.96
2024-04-09T12:53:06.149Z,15.47
2024-04-09T12:55:32.745Z,15.95
2024-04-09T12:57:59.313Z,15.99
2024-04-09T13:00:48.689Z,16.48
2024-04-09T13:03:12.681Z,16.07
2024-04-09T13:05:39.584Z,16.53
2024-04-09T13:08:08.915Z,15.88
2024-04-09T13:10:35.566Z,16.20
2024-04-09T13:13:02.295Z,16.66
2024-04-09T13:17:59.006Z,15.91
2024-04-09T13:20:25.813Z,15.34
2024-04-09T13:22:52.497Z,15.15
2024-04-09T13:25:21.663Z,15.45
2024-04-09T13:27:48.175Z,15.34
2024-04-09T13:30:14.813Z,15.82
2024-04-09T13:32:41.674Z,15.73
2024-04-09T13:35:08.507Z,15.64
2024-04-09T13:37:35.093Z,15.71
2024-04-09T13:40:01.824Z,15.02
2024-04-09T13:42:39.376Z,15.00
2024-04-09T13:45:07.107Z,15.32
2024-04-09T13:47:33.816Z,15.12
2024-04-09T13:50:00.532Z,15.55
2024-04-09T13:52:27.103Z,15.26
2024-04-09T13:54:53.668Z,15.29
2024-04-09T13:57:21.244Z,15.08
2024-04-09T13:59:50.824Z,14.62
2024-04-09T14:02:17.844Z,15.34
2024-04-09T14:04:44.722Z,15.19
2024-04-09T14:07:11.434Z,14.94
2024-04-09T14:09:39.346Z,15.14
2024-04-09T14:12:06.968Z,15.49
2024-04-09T14:14:33.662Z,15.28
2024-04-09T14:17:04.353Z,15.07
2024-04-09T14:19:31.073Z,15.32
2024-04-09T14:21:57.618Z,15.04
2024-04-09T14:24:24.367Z,14.86
2024-04-09T14:26:50.967Z,15.49
2024-04-09T14:29:17.549Z,16.30
2024-04-09T14:31:44.165Z,15.24
2024-04-09T14:34:13.588Z,15.67
2024-04-09T14:36:40.228Z,15.63
2024-04-09T14:39:06.814Z,15.98
2024-04-09T14:41:33.388Z,15.90
2024-04-09T14:44:01.262Z,15.96
2024-04-09T14:46:28.927Z,16.27
2024-04-09T14:48:56.231Z,15.68
2024-04-09T14:51:25.528Z,15.71
2024-04-09T14:53:52.043Z,15.81
2024-04-09T14:56:18.638Z,15.00
2024-04-09T14:58:45.261Z,15.75
2024-04-09T15:01:11.837Z,15.69
2024-04-09T15:03:38.581Z,15.46
2024-04-09T15:06:05.619Z,15.84
2024-04-09T15:08:34.878Z,15.80
2024-04-09T15:11:03.359Z,15.26
2024-04-09T15:13:30.773Z,15.86
2024-04-09T15:15:57.490Z,15.45
2024-04-09T15:18:24.505Z,14.67
2024-04-09T15:20:51.852Z,14.66
2024-04-09T15:23:18.914Z,15.49
2024-04-09T15:25:49.315Z,15.09
2024-04-09T15:28:16.447Z,15.62
2024-04-09T15:30:43.200Z,15.53
2024-04-09T15:33:09.942Z,15.30
2024-04-09T15:35:36.743Z,15.16
2024-04-09T15:38:03.504Z,15.68
2024-04-09T15:40:30.049Z,15.63
2024-04-09T15:42:59.190Z,15.93
2024-04-09T15:45:27.658Z,16.46
2024-04-09T15:47:54.407Z,15.76
2024-04-09T15:50:21.153Z,15.53
2024-04-09T15:52:47.837Z,15.37
2024-04-09T15:55:17.269Z,15.22
2024-04-09T15:57:44.516Z,15.64
2024-04-09T16:00:15.130Z,15.44
2024-04-09T16:02:42.258Z,15.65
2024-04-09T16:05:09.100Z,15.61
2024-04-09T16:07:36.458Z,15.85
2024-04-09T16:10:04.292Z,15.18
2024-04-09T16:12:31.133Z,15.82
2024-04-09T16:14:57.884Z,15.34
2024-04-09T16:17:27.187Z,15.51
2024-04-09T16:19:53.940Z,15.36
2024-04-09T16:22:20.603Z,15.66
2024-04-09T16:24:50.762Z,15.27
2024-04-09T16:27:17.495Z,15.83
2024-04-09T16:29:44.330Z,16.28
2024-04-09T16:32:11.042Z,15.78
2024-04-09T16:34:40.862Z,15.69
2024-04-09T16:37:07.856Z,16.06
2024-04-09T16:39:34.738Z,16.06
2024-04-09T16:42:01.726Z,16.16
2024-04-09T16:44:28.349Z,16.20
2024-04-09T16:46:54.978Z,16.14
2024-04-09T16:49:21.821Z,15.35
2024-04-09T16:51:50.983Z,15.64
2024-04-09T16:54:17.518Z,15.94
2024-04-09T16:56:44.289Z,15.80
2024-04-09T16:59:10.906Z,15.52
2024-04-09T17:01:37.462Z,15.23
2024-04-09T17:04:04.927Z,15.77
2024-04-09T17:06:32.429Z,16.35
2024-04-09T17:09:01.866Z,15.62
2024-04-09T17:11:28.587Z,16.09
2024-04-09T17:13:55.239Z,15.79
2024-04-09T17:16:21.840Z,15.87
2024-04-09T17:18:48.473Z,16.49
2024-04-09T17:21:15.054Z,15.77
2024-04-09T17:23:41.639Z,16.04
2024-04-09T17:26:11.029Z,15.27
2024-04-09T17:28:37.689Z,16.15
2024-04-09T17:31:04.428Z,15.42
2024-04-09T17:33:31.254Z,15.51
2024-04-09T17:35:58.057Z,15.59
2024-04-09T17:38:24.679Z,15.76
2024-04-09T17:40:51.390Z,15.43
2024-04-09T17:43:20.584Z,15.44
2024-04-09T17:45:54.958Z,15.09
2024-04-09T17:48:21.620Z,14.48
2024-04-09T17:50:48.284Z,15.32
2024-04-09T17:53:14.919Z,15.13
2024-04-09T17:55:44.199Z,15.56
2024-04-09T17:58:12.087Z,15.48
2024-04-09T18:00:41.371Z,15.20
2024-04-09T18:03:07.978Z,14.90
2024-04-09T18:05:36.879Z,15.30
2024-04-09T18:08:03.795Z,15.11
2024-04-09T18:10:30.431Z,15.14
2024-04-09T18:12:57.006Z,15.31
2024-04-09T18:15:25.419Z,15.27
2024-04-09T18:17:54.765Z,15.68
2024-04-09T18:20:21.381Z,14.98
2024-04-09T18:22:48.014Z,15.77
2024-04-09T18:25:14.591Z,15.40
2024-04-09T18:27:41.100Z,14.89
2024-04-09T18:30:08.265Z,14.55
2024-04-09T18:32:35.534Z,15.06
2024-04-09T18:35:05.674Z,15.15
2024-04-09T18:37:32.520Z,14.76
2024-04-09T18:40:00.362Z,14.59
2024-04-09T18:42:27.273Z,15.37
2024-04-09T18:44:53.820Z,14.83
2024-04-09T18:47:20.461Z,14.90
2024-04-09T18:49:47.045Z,15.37
2024-04-09T18:52:16.330Z,14.77
2024-04-09T18:54:42.855Z,14.53
2024-04-09T18:57:09.364Z,14.51
2024-04-09T18:59:35.946Z,14.65
2024-04-09T19:02:02.692Z,14.91
2024-04-09T19:04:29.367Z,15.31
2024-04-09T19:06:56.029Z,14.70
2024-04-09T19:09:25.188Z,15.22
2024-04-09T19:11:51.831Z,15.38
2024-04-09T19:14:18.698Z,15.37
2024-04-09T19:16:45.342Z,15.05
2024-04-09T19:19:12.021Z,15.21
2024-04-09T19:21:38.589Z,15.16
2024-04-09T19:24:05.431Z,14.85
2024-04-09T19:26:34.590Z,14.99
2024-04-09T19:29:01.235Z,15.04
2024-04-09T19:31:27.869Z,14.77
2024-04-09T19:33:54.592Z,14.55
2024-04-09T19:36:21.342Z,14.47
2024-04-09T19:38:47.892Z,14.91
2024-04-09T19:41:14.481Z,15.19
2024-04-09T19:43:45.264Z,15.07
2024-04-09T19:46:12.219Z,15.27
2024-04-09T19:48:39.020Z,14.79
2024-04-09T19:51:05.843Z,15.53
2024-04-09T19:53:45.350Z,14.88
2024-04-09T19:56:19.178Z,14.98
2024-04-09T19:58:48.465Z,14.79
2024-04-09T20:01:15.115Z,15.08
2024-04-09T20:03:41.806Z,14.20
2024-04-09T20:06:08.454Z,14.50
2024-04-09T20:08:35.049Z,14.51
2024-04-09T20:11:01.946Z,14.60
2024-04-09T20:13:28.673Z,15.12
2024-04-09T20:15:57.909Z,14.91
2024-04-09T20:18:24.763Z,14.32
2024-04-09T20:20:52.881Z,14.55
2024-04-09T20:23:19.454Z,15.00
2024-04-09T20:25:54.762Z,14.79
2024-04-09T20:28:21.456Z,14.39
2024-04-09T20:30:48.125Z,14.75
2024-04-09T20:33:17.499Z,14.59
2024-04-09T20:35:44.786Z,14.89
2024-04-09T20:38:11.658Z,15.25
2024-04-09T20:40:38.379Z,14.51
2024-04-09T20:43:05.100Z,14.68
2024-04-09T20:45:31.651Z,14.33
2024-04-09T20:47:58.332Z,14.56
2024-04-09T20:50:27.993Z,14.37
2024-04-09T20:52:54.781Z,14.68
2024-04-09T20:55:21.475Z,14.61
2024-04-09T20:57:51.219Z,14.68
2024-04-09T21:00:18.837Z,14.84
2024-04-09T21:02:45.476Z,14.46
2024-04-09T21:05:12.024Z,14.10
2024-04-09T21:07:41.124Z,14.34
2024-04-09T21:10:07.942Z,14.42
2024-04-09T21:12:34.815Z,14.91
2024-04-09T21:15:01.527Z,14.70
2024-04-09T21:17:28.600Z,14.70
2024-04-09T21:19:55.368Z,14.74
2024-04-09T21:22:21.913Z,14.39
2024-04-09T21:24:51.117Z,14.23
2024-04-09T21:27:17.691Z,14.54
2024-04-09T21:29:44.235Z,14.66
2024-04-09T21:32:10.960Z,14.49
2024-04-09T21:34:37.543Z,13.78
2024-04-09T21:37:04.418Z,13.40
2024-04-09T21:39:31.054Z,13.29
2024-04-09T21:42:00.182Z,12.98
2024-04-09T21:44:26.840Z,13.79
2024-04-09T21:46:53.573Z,13.31
2024-04-09T21:49:20.257Z,13.55
2024-04-09T21:51:46.852Z,13.02
2024-04-09T21:54:13.498Z,12.87
2024-04-09T21:56:40.015Z,13.08
2024-04-09T21:59:09.169Z,13.04
2024-04-09T22:01:35.899Z,13.22
2024-04-09T22:04:02.494Z,13.24
2024-04-09T22:06:29.057Z,13.00
2024-04-09T22:08:55.620Z,13.14
2024-04-09T22:11:22.249Z,12.95
2024-04-09T22:13:48.916Z,13.52
2024-04-09T22:16:18.090Z,13.14
2024-04-09T22:18:44.715Z,13.18
2024-04-09T22:21:11.460Z,13.40
2024-04-09T22:23:38.080Z,14.02
2024-04-09T22:26:04.646Z,13.90
2024-04-09T22:28:31.258Z,14.02
2024-04-09T22:30:57.964Z,14.04
2024-04-09T22:33:27.241Z,14.10
2024-04-09T22:35:54.228Z,13.41
2024-04-09T22:38:20.947Z,13.23
2024-04-09T22:40:47.734Z,13.73
2024-04-09T22:43:14.270Z,13.66
2024-04-09T22:45:40.866Z,13.25
2024-04-09T22:48:08.115Z,13.01
2024-04-09T22:50:37.547Z,13.73
2024-04-09T22:53:04.644Z,13.35
2024-04-09T22:55:31.240Z,13.79
2024-04-09T22:57:57.765Z,13.23
2024-04-09T23:00:24.330Z,13.29
2024-04-09T23:02:50.962Z,12.99
2024-04-09T23:05:17.564Z,13.31
2024-04-09T23:07:46.756Z,13.81
2024-04-09T23:10:13.319Z,13.24
2024-04-09T23:12:40.299Z,13.20
2024-04-09T23:15:07.401Z,13.00
2024-04-09T23:17:34.067Z,13.21
2024-04-09T23:20:00.835Z,13.18
2024-04-09T23:22:27.496Z,13.33
2024-04-09T23:24:56.623Z,13.15
2024-04-09T23:27:23.217Z,13.52
2024-04-09T23:29:49.837Z,13.42
2024-04-09T23:32:16.570Z,13.23
2024-04-09T23:34:43.210Z,13.10
2024-04-09T23:37:09.760Z,13.56
2024-04-09T23:39:36.281Z,12.91
2024-04-09T23:42:06.293Z,13.15
2024-04-09T23:44:33.146Z,12.84
2024-04-09T23:46:59.942Z,13.18
2024-04-09T23:49:26.611Z,12.98
2024-04-09T23:51:53.291Z,13.71
2024-04-09T23:54:19.815Z,12.92
2024-04-09T23:56:46.366Z,12.64
2024-04-09T23:59:15.874Z,13.18
